Time;durP1;ratioP1;P1;durP2;ratioP2;P2;SDS_P1;SDS_P2;PMS_P1;PMS_P2;Temp;Humidity;BMP_temperature;BMP_pressure;BME280_temperature;BME280_humidity;BME280_pressure;Samples;Min_cycle;Max_cycle;Signal;HPM_P1;HPM_P2
2022/03/09 00:01:01;;;;;;;0.45;0.45;;;2.50;63.40;;;;;;5094966;28;20096;-74
2022/03/09 00:03:27;;;;;;;0.68;0.68;;;2.40;63.30;;;;;;5094537;28;20043;-74
2022/03/09 00:05:52;;;;;;;0.70;0.50;;;2.50;63.40;;;;;;5112674;28;20040;-74
2022/03/09 00:08:18;;;;;;;0.45;0.45;;;2.40;63.40;;;;;;5112067;28;20122;-74
2022/03/09 00:10:44;;;;;;;1.02;0.52;;;2.30;63.40;;;;;;5112677;28;20095;-74
2022/03/09 00:13:09;;;;;;;1.42;0.80;;;2.40;63.50;;;;;;5112868;28;20028;-74
2022/03/09 00:15:35;;;;;;;0.90;0.68;;;2.30;63.50;;;;;;5113355;28;20070;-74
2022/03/09 00:18:00;;;;;;;0.60;0.40;;;2.30;63.60;;;;;;5094569;28;20032;-74
2022/03/09 00:20:26;;;;;;;0.88;0.43;;;2.30;63.60;;;;;;5092926;28;20090;-74
2022/03/09 00:22:52;;;;;;;1.17;0.68;;;2.20;63.60;;;;;;5112687;28;20078;-74
2022/03/09 00:25:18;;;;;;;1.27;0.57;;;2.20;63.70;;;;;;5113043;28;20039;-74
2022/03/09 00:27:44;;;;;;;0.95;0.60;;;2.10;63.80;;;;;;5112721;28;20039;-74
2022/03/09 00:30:10;;;;;;;1.13;0.60;;;2.10;64.00;;;;;;5112515;28;20066;-74
2022/03/09 00:32:40;;;;;;;0.80;0.60;;;2.00;64.10;;;;;;5112327;28;20374;-74
2022/03/09 00:35:08;;;;;;;1.40;0.60;;;2.00;64.30;;;;;;5094512;28;20032;-73
2022/03/09 00:37:34;;;;;;;0.63;0.40;;;2.00;64.40;;;;;;5112906;28;20067;-74
2022/03/09 00:39:59;;;;;;;0.85;0.60;;;1.90;64.30;;;;;;5112387;28;20035;-74
2022/03/09 00:42:25;;;;;;;1.08;0.60;;;1.90;64.30;;;;;;5112307;28;20043;-74
2022/03/09 00:44:51;;;;;;;1.02;0.73;;;1.80;64.30;;;;;;5094161;28;20050;-74
2022/03/09 00:47:16;;;;;;;0.60;0.47;;;1.80;64.40;;;;;;5112239;28;20043;-74
2022/03/09 00:49:42;;;;;;;1.65;0.90;;;1.80;64.60;;;;;;5112717;28;20035;-74
2022/03/09 00:52:08;;;;;;;0.75;0.50;;;1.70;64.60;;;;;;5093880;28;20569;-74
2022/03/09 00:54:34;;;;;;;1.33;0.70;;;1.60;64.70;;;;;;5113519;28;20543;-73
2022/03/09 00:57:00;;;;;;;1.48;0.88;;;1.60;64.80;;;;;;5113757;28;20035;-73
2022/03/09 00:59:25;;;;;;;0.73;0.60;;;1.60;64.90;;;;;;5094129;28;20466;-73
2022/03/09 01:01:51;;;;;;;0.93;0.60;;;1.60;64.90;;;;;;5112521;28;20043;-74
2022/03/09 01:04:17;;;;;;;1.48;0.75;;;1.50;65.00;;;;;;5112225;28;20036;-74
2022/03/09 01:06:44;;;;;;;1.17;0.65;;;1.50;65.00;;;;;;5112457;28;20431;-74
2022/03/09 01:09:10;;;;;;;1.10;0.90;;;1.40;65.10;;;;;;5093940;28;20078;-73
2022/03/09 01:11:37;;;;;;;0.80;0.60;;;1.30;65.20;;;;;;5112535;28;20498;-74
2022/03/09 01:14:02;;;;;;;1.70;0.80;;;1.30;65.40;;;;;;5112587;28;20062;-74
2022/03/09 01:16:28;;;;;;;1.20;0.63;;;1.30;65.40;;;;;;5112023;28;20458;-74
2022/03/09 01:18:54;;;;;;;0.60;0.50;;;1.30;65.40;;;;;;5093969;28;20040;-74
2022/03/09 01:21:19;;;;;;;0.57;0.50;;;1.30;65.30;;;;;;5114954;28;20044;-74
2022/03/09 01:23:45;;;;;;;0.45;0.40;;;1.30;65.30;;;;;;5097135;28;20058;-74
2022/03/09 01:26:11;;;;;;;1.17;0.68;;;1.20;65.30;;;;;;5115225;28;20524;-74
2022/03/09 01:28:37;;;;;;;1.48;0.68;;;1.20;65.40;;;;;;5115271;28;20118;-74
2022/03/09 01:31:03;;;;;;;1.50;0.82;;;1.10;65.50;;;;;;5096946;28;20457;-74
2022/03/09 01:33:28;;;;;;;1.23;0.60;;;1.00;65.60;;;;;;5097129;28;20056;-74
2022/03/09 01:35:54;;;;;;;0.65;0.50;;;1.00;65.80;;;;;;5096885;28;20051;-74
2022/03/09 01:38:20;;;;;;;1.05;0.60;;;1.00;65.80;;;;;;5115533;28;20093;-73
2022/03/09 01:40:46;;;;;;;0.90;0.50;;;0.90;65.70;;;;;;5097290;28;20407;-74
2022/03/09 01:43:14;;;;;;;0.70;0.47;;;1.00;65.70;;;;;;5115355;28;20043;-74
2022/03/09 01:45:40;;;;;;;1.42;0.50;;;1.00;65.70;;;;;;5115084;28;20043;-74
2022/03/09 01:48:05;;;;;;;0.57;0.40;;;0.90;65.70;;;;;;5115355;28;20092;-74
2022/03/09 01:50:31;;;;;;;0.55;0.45;;;0.90;65.80;;;;;;5114786;28;20039;-74
2022/03/09 01:52:57;;;;;;;1.10;0.55;;;0.90;65.90;;;;;;5079687;28;20032;-74
2022/03/09 01:55:23;;;;;;;0.45;0.30;;;0.80;65.90;;;;;;5097336;28;20035;-74
2022/03/09 01:57:48;;;;;;;1.48;0.70;;;0.80;66.00;;;;;;5115490;28;20378;-74
2022/03/09 02:00:14;;;;;;;0.45;0.45;;;0.80;66.10;;;;;;5114830;28;20044;-74
2022/03/09 02:02:40;;;;;;;0.70;0.38;;;0.70;66.10;;;;;;5096735;28;20032;-74
2022/03/09 02:05:07;;;;;;;0.70;0.30;;;0.80;66.10;;;;;;5115013;28;20124;-74
2022/03/09 02:10:18;;;;;;;0.57;0.40;;;0.80;66.00;;;;;;5114667;28;20032;-73
2022/03/09 02:12:44;;;;;;;1.30;0.60;;;0.90;66.00;;;;;;5096513;28;20058;-73
2022/03/09 02:15:09;;;;;;;0.68;0.40;;;0.80;65.90;;;;;;5116586;28;20027;-74
2022/03/09 02:17:35;;;;;;;1.23;0.50;;;0.80;65.90;;;;;;5096869;28;20469;-74
2022/03/09 02:20:01;;;;;;;0.88;0.50;;;0.80;65.90;;;;;;5114567;28;20084;-74
2022/03/09 02:22:32;;;;;;;1.08;0.50;;;0.80;65.90;;;;;;5096452;28;20035;-74
2022/03/09 02:24:58;;;;;;;;;;;0.80;65.90;;;;;;5095729;28;20039;-73
2022/03/09 02:27:24;;;;;;;0.55;0.30;;;0.70;65.90;;;;;;5114365;28;19922;-74
2022/03/09 02:29:51;;;;;;;0.52;0.32;;;0.70;65.90;;;;;;5114419;28;20500;-74
2022/03/09 02:32:17;;;;;;;0.70;0.40;;;0.60;66.00;;;;;;5113149;28;20541;-74
2022/03/09 02:34:44;;;;;;;1.90;0.80;;;0.50;66.00;;;;;;5114359;28;20496;-74
2022/03/09 02:37:10;;;;;;;0.40;0.30;;;0.50;66.20;;;;;;5096212;28;20051;-74
2022/03/09 02:39:36;;;;;;;0.68;0.38;;;0.50;66.30;;;;;;5114287;28;20056;-74
2022/03/09 02:42:03;;;;;;;0.82;0.50;;;0.40;66.40;;;;;;5114462;28;20063;-73
2022/03/09 02:44:29;;;;;;;0.63;0.40;;;0.40;66.50;;;;;;5114104;28;20039;-74
2022/03/09 02:46:55;;;;;;;0.73;0.50;;;0.40;66.60;;;;;;5095816;28;20047;-74
2022/03/09 02:49:21;;;;;;;0.60;0.40;;;0.40;66.70;;;;;;5095755;28;20081;-75
2022/03/09 02:51:47;;;;;;;1.05;0.60;;;0.40;66.70;;;;;;5114612;28;20122;-74
2022/03/09 02:54:14;;;;;;;0.70;0.43;;;0.30;66.60;;;;;;5114121;28;20077;-74
2022/03/09 02:56:40;;;;;;;0.90;0.60;;;0.30;66.60;;;;;;5113982;28;20131;-74
2022/03/09 02:59:05;;;;;;;0.70;0.40;;;0.30;66.60;;;;;;5113941;28;20453;-73
2022/03/09 03:01:31;;;;;;;0.77;0.47;;;0.40;66.70;;;;;;5114455;28;20492;-74
2022/03/09 03:03:57;;;;;;;0.50;0.50;;;0.30;66.70;;;;;;5095718;28;20063;-74
2022/03/09 03:06:23;;;;;;;0.40;0.40;;;0.30;66.70;;;;;;5113710;28;20047;-74
2022/03/09 03:08:50;;;;;;;0.68;0.50;;;0.30;66.70;;;;;;5114107;28;20039;-74
2022/03/09 03:11:16;;;;;;;0.73;0.30;;;0.30;66.70;;;;;;5095885;28;20044;-74
2022/03/09 03:13:42;;;;;;;0.75;0.30;;;0.30;66.70;;;;;;5113774;28;20047;-74
2022/03/09 03:16:10;;;;;;;0.30;0.30;;;0.20;66.80;;;;;;5113751;28;20512;-73
2022/03/09 03:18:36;;;;;;;1.10;0.47;;;0.20;66.90;;;;;;5095332;28;20043;-74
2022/03/09 03:21:02;;;;;;;0.63;0.40;;;0.10;67.00;;;;;;5113631;28;20051;-73
2022/03/09 03:23:31;;;;;;;0.63;0.38;;;0.10;67.10;;;;;;5113723;28;20397;-74
2022/03/09 03:25:58;;;;;;;0.93;0.40;;;0.00;67.20;;;;;;5113475;28;20378;-74
2022/03/09 03:28:24;;;;;;;1.52;0.63;;;0.00;67.20;;;;;;5095099;28;20050;-74
2022/03/09 03:30:50;;;;;;;1.23;0.63;;;0.00;67.20;;;;;;5095128;28;20378;-74
2022/03/09 03:33:17;;;;;;;0.75;0.40;;;0.00;67.20;;;;;;5095085;28;20032;-74
2022/03/09 03:35:44;;;;;;;1.00;0.45;;;0.00;67.20;;;;;;5113746;28;20458;-74
2022/03/09 03:38:10;;;;;;;0.82;0.50;;;0.10;67.40;;;;;;5113768;28;20047;-74
2022/03/09 03:40:37;;;;;;;0.35;0.35;;;0.00;67.30;;;;;;5113436;28;20043;-75
2022/03/09 03:43:04;;;;;;;0.38;0.38;;;0.00;67.40;;;;;;5113479;28;20385;-74
2022/03/09 03:45:30;;;;;;;1.05;0.47;;;0.00;67.40;;;;;;5113171;28;20432;-74
2022/03/09 03:47:56;;;;;;;0.63;0.43;;;0.10;67.40;;;;;;5113763;28;20031;-74
2022/03/09 03:50:22;;;;;;;0.45;0.43;;;0.00;67.20;;;;;;5095126;28;20042;-74
2022/03/09 03:52:48;;;;;;;0.85;0.30;;;0.00;67.30;;;;;;5113565;28;20040;-73
2022/03/09 03:55:14;;;;;;;0.50;0.40;;;0.00;67.40;;;;;;5061433;28;20115;-74
2022/03/09 03:57:40;;;;;;;0.63;0.50;;;0.00;67.40;;;;;;5113009;28;20595;-74
2022/03/09 04:00:14;;;;;;;0.60;0.38;;;0.00;67.40;;;;;;5113087;28;20035;-73
2022/03/09 04:02:39;;;;;;;0.55;0.40;;;-0.10;67.30;;;;;;5094605;28;20063;-74
2022/03/09 04:05:06;;;;;;;0.80;0.38;;;0.00;67.40;;;;;;5112992;28;20112;-74
2022/03/09 04:07:32;;;;;;;0.63;0.40;;;0.00;67.40;;;;;;5094440;28;20386;-74
2022/03/09 04:09:58;;;;;;;1.45;0.43;;;0.00;67.30;;;;;;5094739;28;20527;-73
2022/03/09 04:12:24;;;;;;;1.13;0.50;;;0.00;67.20;;;;;;5113177;28;20043;-74
2022/03/09 04:14:51;;;;;;;0.70;0.40;;;0.10;67.20;;;;;;5094456;28;20048;-73
2022/03/09 04:17:17;;;;;;;0.73;0.47;;;0.00;67.20;;;;;;5094367;28;20042;-74
2022/03/09 04:19:43;;;;;;;0.80;0.43;;;0.00;67.30;;;;;;5094788;28;20047;-73
2022/03/09 04:22:08;;;;;;;2.30;0.50;;;0.00;67.40;;;;;;5114800;28;20130;-73
2022/03/09 04:24:34;;;;;;;0.47;0.40;;;0.00;67.40;;;;;;5115388;28;20039;-74
2022/03/09 04:27:00;;;;;;;1.13;0.60;;;0.00;67.40;;;;;;5096901;28;20074;-73
2022/03/09 04:29:25;;;;;;;0.68;0.50;;;0.00;67.30;;;;;;5112979;28;20043;-73
2022/03/09 04:31:51;;;;;;;0.40;0.35;;;0.00;67.30;;;;;;5112705;28;20042;-73
2022/03/09 04:34:17;;;;;;;1.30;0.73;;;0.00;67.30;;;;;;5112598;28;20123;-73
2022/03/09 04:36:42;;;;;;;0.55;0.43;;;0.10;67.30;;;;;;5112888;28;20130;-74
2022/03/09 04:39:08;;;;;;;1.33;0.47;;;0.10;67.20;;;;;;5094365;28;20393;-73
2022/03/09 04:41:34;;;;;;;0.45;0.30;;;0.10;67.20;;;;;;5112495;28;20040;-73
2022/03/09 04:44:00;;;;;;;0.35;0.35;;;0.10;67.10;;;;;;5094214;28;20126;-73
2022/03/09 04:46:25;;;;;;;0.85;0.40;;;0.10;67.10;;;;;;5112425;28;20390;-73
2022/03/09 04:48:51;;;;;;;0.50;0.40;;;0.10;67.10;;;;;;5077320;28;20081;-74
2022/03/09 04:51:17;;;;;;;1.10;0.40;;;0.10;67.20;;;;;;5112326;28;20061;-73
2022/03/09 04:53:43;;;;;;;0.50;0.40;;;0.10;67.30;;;;;;5094149;28;20455;-73
2022/03/09 04:56:09;;;;;;;0.63;0.50;;;0.00;67.30;;;;;;5096452;28;20497;-73
2022/03/09 04:58:35;;;;;;;0.77;0.30;;;0.00;67.40;;;;;;5115753;28;20059;-73
2022/03/09 05:01:01;;;;;;;0.95;0.35;;;0.00;67.40;;;;;;5116252;28;20032;-74
2022/03/09 05:03:27;;;;;;;0.40;0.40;;;0.00;67.40;;;;;;5097634;28;20443;-74
2022/03/09 05:05:52;;;;;;;1.00;0.50;;;0.00;67.50;;;;;;5080525;28;20039;-73
2022/03/09 05:08:18;;;;;;;1.45;0.50;;;0.00;67.50;;;;;;5115838;28;20032;-73
2022/03/09 05:10:44;;;;;;;0.73;0.43;;;0.00;67.50;;;;;;5116264;28;20485;-74
2022/03/09 05:13:09;;;;;;;0.40;0.30;;;0.00;67.50;;;;;;5115822;28;20039;-73
2022/03/09 05:15:35;;;;;;;1.27;0.65;;;0.00;67.50;;;;;;5097918;28;20054;-73
2022/03/09 05:18:01;;;;;;;0.50;0.32;;;0.00;67.60;;;;;;5080762;28;20048;-74
2022/03/09 05:20:27;;;;;;;0.55;0.30;;;-0.10;67.70;;;;;;5116090;28;20042;-73
2022/03/09 05:22:53;;;;;;;0.77;0.50;;;-0.10;67.70;;;;;;5116055;28;20040;-74
2022/03/09 05:25:19;;;;;;;1.30;0.35;;;-0.20;67.70;;;;;;5115860;28;20432;-74
2022/03/09 05:27:45;;;;;;;0.43;0.30;;;-0.10;67.90;;;;;;5097657;28;20419;-74
2022/03/09 05:30:12;;;;;;;0.77;0.50;;;-0.20;67.90;;;;;;5097259;28;20040;-74
2022/03/09 05:32:39;;;;;;;1.02;0.45;;;-0.20;68.00;;;;;;5115571;28;20054;-74
2022/03/09 05:35:06;;;;;;;0.70;0.45;;;-0.20;68.00;;;;;;5097639;28;20050;-74
2022/03/09 05:37:37;;;;;;;0.80;0.40;;;-0.30;68.10;;;;;;5115470;28;20562;-73
2022/03/09 05:40:04;;;;;;;0.55;0.40;;;-0.20;68.20;;;;;;5114164;28;20042;-74
2022/03/09 05:42:30;;;;;;;0.75;0.30;;;-0.30;68.20;;;;;;5115315;28;20039;-74
2022/03/09 05:44:56;;;;;;;0.50;0.30;;;-0.30;68.20;;;;;;5115342;28;20042;-74
2022/03/09 05:47:21;;;;;;;0.30;0.28;;;-0.30;68.30;;;;;;5115300;28;20036;-74
2022/03/09 05:49:47;;;;;;;0.93;0.38;;;-0.20;68.40;;;;;;5096870;28;20038;-74
2022/03/09 05:52:13;;;;;;;0.52;0.32;;;-0.20;68.30;;;;;;5097028;28;20112;-74
2022/03/09 05:54:39;;;;;;;0.68;0.32;;;-0.20;68.40;;;;;;5096900;28;20039;-73
2022/03/09 05:57:05;;;;;;;0.95;0.60;;;-0.20;68.40;;;;;;5114968;28;20044;-74
2022/03/09 05:59:30;;;;;;;0.47;0.30;;;-0.30;68.30;;;;;;5096930;28;20040;-74
2022/03/09 06:01:56;;;;;;;0.20;0.20;;;-0.20;68.30;;;;;;5098460;28;20040;-74
2022/03/09 06:04:22;;;;;;;1.00;0.50;;;-0.20;68.20;;;;;;5115137;28;20038;-74
2022/03/09 06:06:47;;;;;;;1.45;0.50;;;-0.20;68.20;;;;;;5115138;28;20046;-74
2022/03/09 06:09:13;;;;;;;0.73;0.43;;;-0.20;68.20;;;;;;5114916;28;20120;-74
2022/03/09 06:11:41;;;;;;;0.63;0.43;;;-0.30;68.30;;;;;;5096551;28;20043;-74
2022/03/09 06:14:06;;;;;;;0.60;0.45;;;-0.30;68.40;;;;;;5114958;28;20046;-74
2022/03/09 06:16:33;;;;;;;0.65;0.35;;;-0.30;68.50;;;;;;5114723;28;20036;-74
2022/03/09 06:18:58;;;;;;;0.30;0.28;;;-0.30;68.50;;;;;;5114923;28;20047;-74
2022/03/09 06:21:24;;;;;;;0.68;0.43;;;-0.30;68.50;;;;;;5079656;28;20052;-74
2022/03/09 06:23:50;;;;;;;0.65;0.40;;;-0.20;68.50;;;;;;5114629;28;20043;-74
2022/03/09 06:26:16;;;;;;;0.60;0.30;;;-0.30;68.40;;;;;;5114669;28;20075;-74
2022/03/09 06:28:41;;;;;;;0.52;0.32;;;-0.30;68.40;;;;;;5114496;28;20031;-74
2022/03/09 06:31:07;;;;;;;0.77;0.43;;;-0.30;68.40;;;;;;5114781;28;20118;-74
2022/03/09 06:33:33;;;;;;;1.08;0.50;;;-0.20;68.40;;;;;;5114990;28;20102;-74
2022/03/09 06:35:59;;;;;;;0.68;0.28;;;-0.20;68.40;;;;;;5114925;28;20051;-73
2022/03/09 06:38:25;;;;;;;1.10;0.40;;;-0.20;68.30;;;;;;5114912;28;20496;-74
2022/03/09 06:40:51;;;;;;;0.75;0.40;;;-0.10;68.30;;;;;;5096851;28;20069;-73
2022/03/09 06:43:17;;;;;;;0.77;0.40;;;-0.10;68.20;;;;;;5096258;28;20058;-74
2022/03/09 06:45:43;;;;;;;0.40;0.30;;;0.00;68.10;;;;;;5114559;28;20036;-74
2022/03/09 06:48:09;;;;;;;0.80;0.40;;;0.00;68.10;;;;;;5114313;28;20038;-73
2022/03/09 06:50:35;;;;;;;0.30;0.30;;;0.00;68.00;;;;;;5095820;28;20039;-74
2022/03/09 06:53:01;;;;;;;1.55;0.50;;;0.00;68.10;;;;;;5079242;28;20043;-74
2022/03/09 06:55:27;;;;;;;0.65;0.38;;;0.00;68.00;;;;;;5114485;28;20031;-74
2022/03/09 06:57:52;;;;;;;0.65;0.40;;;0.10;68.10;;;;;;5114270;28;20040;-73
2022/03/09 07:00:19;;;;;;;1.00;0.40;;;0.20;68.00;;;;;;5096207;28;20024;-73
2022/03/09 07:02:46;;;;;;;0.57;0.30;;;0.20;67.90;;;;;;5114042;28;20046;-74
2022/03/09 07:05:12;;;;;;;0.22;0.20;;;0.30;67.90;;;;;;5114631;28;20042;-73
2022/03/09 07:07:39;;;;;;;0.47;0.30;;;0.30;67.80;;;;;;5096127;28;20459;-73
2022/03/09 07:10:10;;;;;;;0.82;0.50;;;0.40;67.60;;;;;;5078753;28;20089;-73
2022/03/09 07:12:37;;;;;;;0.38;0.30;;;0.50;67.50;;;;;;5096412;28;20088;-73
2022/03/09 07:15:03;;;;;;;1.10;0.50;;;0.60;67.50;;;;;;5096084;28;20047;-73
2022/03/09 07:17:29;;;;;;;0.60;0.40;;;0.60;67.30;;;;;;5113424;28;20091;-71
2022/03/09 07:19:55;;;;;;;0.68;0.40;;;0.80;67.30;;;;;;5113420;28;20039;-71
2022/03/09 07:22:20;;;;;;;0.63;0.43;;;0.70;67.10;;;;;;5113606;28;20126;-72
2022/03/09 07:24:46;;;;;;;1.08;0.52;;;0.90;67.10;;;;;;5095222;28;20039;-72
2022/03/09 07:27:12;;;;;;;0.70;0.43;;;1.00;66.90;;;;;;5059765;28;20040;-73
2022/03/09 07:29:38;;;;;;;0.52;0.38;;;1.10;66.80;;;;;;5095720;28;20040;-72
2022/03/09 07:32:04;;;;;;;1.05;0.70;;;1.20;66.70;;;;;;5113843;28;20200;-72
2022/03/09 07:34:29;;;;;;;1.00;0.50;;;1.30;66.60;;;;;;5113664;28;20100;-72
2022/03/09 07:36:58;;;;;;;0.98;0.43;;;1.40;66.50;;;;;;5113917;28;20492;-72
2022/03/09 07:39:27;;;;;;;1.17;0.52;;;1.50;66.30;;;;;;5078940;28;20481;-72
2022/03/09 07:41:54;;;;;;;0.93;0.50;;;1.70;66.30;;;;;;5096118;28;20043;-72
2022/03/09 07:44:20;;;;;;;0.75;0.50;;;1.70;66.10;;;;;;5095520;28;20442;-72
2022/03/09 07:46:46;;;;;;;1.33;0.73;;;1.80;65.90;;;;;;5095374;28;20040;-73
2022/03/09 07:49:12;;;;;;;0.90;0.65;;;2.00;65.90;;;;;;5113462;28;20035;-72
2022/03/09 07:51:38;;;;;;;0.80;0.50;;;2.10;65.70;;;;;;5095376;28;20126;-72
2022/03/09 07:54:04;;;;;;;0.60;0.50;;;2.20;65.60;;;;;;5095262;28;20123;-72
2022/03/09 07:56:30;;;;;;;0.98;0.70;;;2.40;65.50;;;;;;5095331;28;20454;-72
2022/03/09 07:58:56;;;;;;;0.38;0.38;;;2.50;65.30;;;;;;5113285;28;20039;-72
2022/03/09 08:01:22;;;;;;;0.85;0.55;;;2.60;65.20;;;;;;5113337;28;20070;-72
2022/03/09 08:03:48;;;;;;;0.90;0.63;;;2.80;65.10;;;;;;5078030;28;20382;-72
2022/03/09 08:06:14;;;;;;;0.68;0.55;;;2.90;64.90;;;;;;5113236;28;20101;-72
2022/03/09 08:08:40;;;;;;;1.20;0.77;;;3.00;64.70;;;;;;5095203;28;20521;-72
2022/03/09 08:11:06;;;;;;;1.67;0.80;;;3.20;64.60;;;;;;5113031;28;20489;-72
2022/03/09 08:13:31;;;;;;;1.63;0.73;;;3.40;64.50;;;;;;5113305;28;20046;-72
2022/03/09 08:15:57;;;;;;;1.50;0.80;;;3.50;64.40;;;;;;5094936;28;20043;-71
2022/03/09 08:18:23;;;;;;;1.50;0.80;;;3.60;64.20;;;;;;5094643;28;20938;-71
2022/03/09 08:20:49;;;;;;;2.15;0.90;;;3.80;64.20;;;;;;5113229;28;20075;-72
2022/03/09 08:23:15;;;;;;;1.38;0.98;;;3.90;64.00;;;;;;5094700;28;20067;-71
2022/03/09 08:25:40;;;;;;;1.38;1.00;;;4.10;63.90;;;;;;5094377;28;20066;-71
2022/03/09 08:28:06;;;;;;;1.67;0.90;;;4.20;63.80;;;;;;5094771;28;20036;-71
2022/03/09 08:30:32;;;;;;;1.67;1.00;;;4.30;63.70;;;;;;5094131;28;20047;-72
2022/03/09 08:32:58;;;;;;;2.08;1.00;;;4.40;63.60;;;;;;5112798;28;20085;-72
2022/03/09 08:35:24;;;;;;;2.35;0.90;;;4.60;63.60;;;;;;5113281;28;20077;-71
2022/03/09 08:37:49;;;;;;;1.10;0.93;;;4.60;63.50;;;;;;5112989;28;20393;-72
2022/03/09 08:40:15;;;;;;;1.55;0.80;;;4.80;63.50;;;;;;5112978;28;20108;-72
2022/03/09 08:42:41;;;;;;;1.90;0.90;;;4.90;63.40;;;;;;5112667;28;20093;-71
2022/03/09 08:45:07;;;;;;;2.10;1.13;;;4.90;63.30;;;;;;5077365;28;20100;-71
2022/03/09 08:47:32;;;;;;;2.50;0.88;;;5.00;63.20;;;;;;5094381;28;20093;-72
2022/03/09 08:49:58;;;;;;;1.80;1.10;;;5.20;63.30;;;;;;5112921;28;20481;-71
2022/03/09 08:52:24;;;;;;;2.03;1.13;;;5.20;63.20;;;;;;5112434;28;20040;-72
2022/03/09 08:54:53;;;;;;;2.63;0.70;;;5.30;63.10;;;;;;5094246;28;20489;-72
2022/03/09 08:57:21;;;;;;;2.25;1.08;;;5.40;63.00;;;;;;5094747;28;20513;-71
2022/03/09 08:59:47;;;;;;;1.88;1.00;;;5.50;63.00;;;;;;5112333;28;20048;-71
2022/03/09 09:02:12;;;;;;;2.03;1.05;;;5.60;63.00;;;;;;5077308;28;20126;-71
2022/03/09 09:04:38;;;;;;;2.08;1.10;;;5.70;62.90;;;;;;5112420;28;20035;-72
2022/03/09 09:07:06;;;;;;;1.80;0.98;;;5.80;62.80;;;;;;5093992;28;20054;-72
2022/03/09 09:09:32;;;;;;;2.00;1.05;;;5.80;62.70;;;;;;5112457;28;20036;-72
2022/03/09 09:12:02;;;;;;;2.72;1.48;;;6.00;62.70;;;;;;5112346;28;20032;-71
2022/03/09 09:14:28;;;;;;;1.13;0.90;;;6.10;62.60;;;;;;5112743;28;20031;-71
2022/03/09 09:16:55;;;;;;;2.13;1.17;;;6.20;62.50;;;;;;5077339;28;20043;-72
2022/03/09 09:19:21;;;;;;;2.30;1.00;;;6.20;62.50;;;;;;5112585;28;20043;-72
2022/03/09 09:21:47;;;;;;;2.00;1.20;;;6.30;62.50;;;;;;5094293;28;20039;-72
2022/03/09 09:24:14;;;;;;;2.30;1.00;;;6.40;62.40;;;;;;5094403;28;20455;-73
2022/03/09 09:26:39;;;;;;;2.08;1.15;;;6.50;62.90;;;;;;5112127;28;20039;-72
2022/03/09 09:29:07;;;;;;;1.98;1.10;;;6.60;62.30;;;;;;5093766;28;20044;-72
2022/03/09 09:31:33;;;;;;;2.17;1.00;;;6.70;62.20;;;;;;5112382;28;20042;-71
2022/03/09 09:33:59;;;;;;;2.00;1.20;;;6.70;62.00;;;;;;5112353;28;20385;-72
2022/03/09 09:36:25;;;;;;;1.98;1.00;;;6.80;62.00;;;;;;5093620;28;20035;-72
2022/03/09 09:38:51;;;;;;;2.38;0.90;;;6.90;62.00;;;;;;5093623;28;20489;-71
2022/03/09 09:41:19;;;;;;;1.92;1.10;;;7.00;61.90;;;;;;5113191;28;20042;-72
2022/03/09 09:43:45;;;;;;;1.73;1.00;;;7.00;62.40;;;;;;5097320;28;20040;-72
2022/03/09 09:46:13;;;;;;;1.40;0.82;;;7.20;61.80;;;;;;5115198;28;20067;-71
2022/03/09 09:48:39;;;;;;;2.28;1.13;;;7.30;61.60;;;;;;5096904;28;20039;-72
2022/03/09 09:51:06;;;;;;;1.17;0.80;;;7.40;61.50;;;;;;5115717;28;20092;-71
2022/03/09 09:53:35;;;;;;;2.35;1.17;;;7.50;61.40;;;;;;5115079;28;20478;-70
2022/03/09 09:56:02;;;;;;;1.38;1.10;;;7.50;61.30;;;;;;5115243;28;20046;-71
2022/03/09 09:58:28;;;;;;;1.83;0.98;;;7.60;61.30;;;;;;5115073;28;20055;-71
2022/03/09 10:00:55;;;;;;;1.33;0.93;;;7.60;61.10;;;;;;5115277;28;20036;-71
2022/03/09 10:03:21;;;;;;;1.48;1.00;;;7.80;61.10;;;;;;5114996;28;20043;-71
2022/03/09 10:05:47;;;;;;;1.63;1.10;;;7.80;61.10;;;;;;5096718;28;20046;-70
2022/03/09 10:08:16;;;;;;;1.55;1.00;;;7.80;60.90;;;;;;5114943;28;20039;-70
2022/03/09 10:10:54;;;;;;;1.83;1.17;;;7.90;60.80;;;;;;5113711;28;20036;-71
2022/03/09 10:13:24;;;;;;;1.70;1.10;;;8.00;60.80;;;;;;5114817;28;20077;-72
2022/03/09 10:16:07;;;;;;;1.87;1.07;;;8.00;60.80;;;;;;5097295;28;20071;-72
2022/03/09 10:18:33;;;;;;;1.67;1.15;;;8.10;60.70;;;;;;5114686;28;20077;-72
2022/03/09 10:21:18;;;;;;;1.92;1.00;;;8.20;60.60;;;;;;5096536;28;20066;-72
2022/03/09 10:24:05;;;;;;;1.80;1.08;;;8.30;60.40;;;;;;5115124;28;20043;-72
2022/03/09 10:26:51;;;;;;;1.83;1.10;;;8.40;60.40;;;;;;5096385;28;20050;-72
2022/03/09 10:29:18;;;;;;;1.58;0.88;;;8.40;60.30;;;;;;5113371;28;20040;-71
2022/03/09 10:31:51;;;;;;;1.52;1.00;;;8.50;60.20;;;;;;5114937;28;20517;-71
2022/03/09 10:34:24;;;;;;;1.52;0.95;;;8.60;60.10;;;;;;5096953;28;20023;-71
2022/03/09 10:36:59;;;;;;;1.20;0.80;;;8.70;60.00;;;;;;5080472;28;20404;-72
2022/03/09 10:39:28;;;;;;;1.27;1.00;;;8.70;59.90;;;;;;5114901;28;20139;-73
2022/03/09 10:41:54;;;;;;;2.75;1.30;;;8.80;59.80;;;;;;5115053;28;20130;-72
2022/03/09 10:44:42;;;;;;;2.28;1.27;;;8.90;59.70;;;;;;5096889;28;20507;-72
2022/03/09 10:47:08;;;;;;;1.67;1.10;;;9.00;59.50;;;;;;5113500;28;20036;-71
2022/03/09 10:49:34;;;;;;;1.98;1.17;;;9.20;59.50;;;;;;5114835;28;20086;-72
2022/03/09 10:52:01;;;;;;;3.20;1.35;;;9.20;59.30;;;;;;5114109;28;20035;-71
2022/03/09 10:54:28;;;;;;;1.88;1.00;;;9.40;59.20;;;;;;5096295;28;20039;-70
2022/03/09 10:57:13;;;;;;;1.77;1.13;;;9.50;59.10;;;;;;5096315;28;20080;-71
2022/03/09 10:59:49;;;;;;;1.58;1.00;;;9.60;58.90;;;;;;5095238;28;20075;-71
2022/03/09 11:02:19;;;;;;;1.50;1.02;;;9.70;58.80;;;;;;5093701;28;20043;-71
2022/03/09 11:05:07;;;;;;;1.70;1.10;;;9.70;58.70;;;;;;5114043;28;20051;-73
2022/03/09 11:07:36;;;;;;;1.40;0.93;;;9.90;58.50;;;;;;5112383;28;20044;-72
2022/03/09 11:10:02;;;;;;;1.52;0.90;;;10.00;58.50;;;;;;5114492;28;20043;-72
2022/03/09 11:12:28;;;;;;;2.10;1.25;;;10.10;58.40;;;;;;5095808;28;20043;-72
2022/03/09 11:14:54;;;;;;;2.90;1.40;;;10.20;58.50;;;;;;5095498;28;20036;-72
2022/03/09 11:17:23;;;;;;;2.22;1.20;;;10.20;58.20;;;;;;5113866;28;20122;-71
2022/03/09 11:19:48;;;;;;;2.63;1.23;;;10.30;58.00;;;;;;5113808;28;20051;-72
2022/03/09 11:22:14;;;;;;;2.15;1.30;;;10.50;58.00;;;;;;5113934;28;20122;-72
2022/03/09 11:24:41;;;;;;;3.67;1.50;;;10.50;57.80;;;;;;5095339;28;20049;-72
2022/03/09 11:27:08;;;;;;;2.90;1.30;;;10.60;57.70;;;;;;5113330;28;20157;-71
2022/03/09 11:29:35;;;;;;;2.05;1.30;;;10.70;57.60;;;;;;5095313;28;20051;-71
2022/03/09 11:32:04;;;;;;;2.10;1.30;;;10.80;57.60;;;;;;5113359;28;20477;-71
2022/03/09 11:34:32;;;;;;;2.33;1.20;;;10.90;57.60;;;;;;5095592;28;20047;-72
2022/03/09 11:37:09;;;;;;;2.50;1.40;;;11.00;57.50;;;;;;5095090;28;20035;-72
2022/03/09 11:39:37;;;;;;;2.03;1.30;;;11.00;57.30;;;;;;5111242;28;20046;-72
2022/03/09 11:42:26;;;;;;;2.72;1.48;;;11.10;57.20;;;;;;5113315;28;20075;-72
2022/03/09 11:45:13;;;;;;;2.47;1.20;;;11.20;57.10;;;;;;5111797;28;20047;-72
2022/03/09 11:47:55;;;;;;;2.80;1.33;;;11.40;57.10;;;;;;5113091;28;20043;-72
2022/03/09 11:50:20;;;;;;;;;;;11.40;56.90;;;;;;5113700;28;20048;-72
2022/03/09 11:53:07;;;;;;;2.13;1.40;;;11.50;57.00;;;;;;5095113;28;20333;-72
2022/03/09 11:55:35;;;;;;;2.75;1.38;;;11.50;56.80;;;;;;5113261;28;20580;-73
2022/03/09 11:58:18;;;;;;;2.67;1.38;;;11.60;56.70;;;;;;5095043;28;20698;-70
2022/03/09 12:01:02;;;;;;;1.88;1.08;;;11.70;56.60;;;;;;5112330;28;20027;-71
2022/03/09 12:03:41;;;;;;;2.10;1.33;;;11.90;56.60;;;;;;5113252;28;20059;-71
2022/03/09 12:06:41;;;;;;;2.13;1.30;;;11.80;56.40;;;;;;5113596;28;20043;-72
2022/03/09 12:09:08;;;;;;;3.22;1.60;;;12.00;56.30;;;;;;5111113;28;20066;-71
2022/03/09 12:12:05;;;;;;;2.45;1.48;;;12.10;56.30;;;;;;5070260;28;20037;-72
2022/03/09 12:15:01;;;;;;;2.55;1.52;;;12.30;56.10;;;;;;5054078;28;20433;-72
2022/03/09 12:17:43;;;;;;;3.13;1.67;;;12.30;55.90;;;;;;5070455;28;20135;-72
2022/03/09 12:20:23;;;;;;;3.92;1.88;;;12.50;55.90;;;;;;5070254;28;20040;-73
2022/03/09 12:23:05;;;;;;;3.20;1.40;;;12.60;55.60;;;;;;5053648;28;20074;-71
2022/03/09 12:25:38;;;;;;;;;;;12.70;55.60;;;;;;5070905;28;20048;-72
2022/03/09 12:28:43;;;;;;;2.35;1.15;;;12.70;55.60;;;;;;5070717;28;20405;-74
2022/03/09 12:31:20;;;;;;;1.98;1.20;;;12.80;55.50;;;;;;5056115;28;20471;-72
2022/03/09 12:33:51;;;;;;;2.28;1.27;;;12.80;55.50;;;;;;5069994;28;20468;-72
2022/03/09 12:36:20;;;;;;;1.75;1.05;;;12.80;55.50;;;;;;5053036;28;20541;-72
2022/03/09 12:38:50;;;;;;;2.33;1.35;;;12.90;55.60;;;;;;5070101;28;20080;-72
2022/03/09 12:41:44;;;;;;;2.20;1.30;;;13.10;55.40;;;;;;5053129;28;20051;-71
2022/03/09 12:44:14;;;;;;;2.13;1.30;;;13.30;55.10;;;;;;5095662;28;20043;-72
2022/03/09 12:46:43;;;;;;;2.85;1.48;;;13.30;55.10;;;;;;5094201;28;20040;-72
2022/03/09 12:49:12;;;;;;;2.83;1.63;;;13.40;54.90;;;;;;5112820;28;20035;-72
2022/03/09 12:51:47;;;;;;;2.67;1.55;;;13.50;54.80;;;;;;5112699;28;20122;-71
2022/03/09 12:54:13;;;;;;;3.17;1.45;;;13.70;54.80;;;;;;5111282;28;20039;-72
2022/03/09 12:56:39;;;;;;;4.63;2.47;;;13.70;54.70;;;;;;5112812;28;20040;-71
2022/03/09 12:59:11;;;;;;;4.72;2.40;;;13.70;54.20;;;;;;5094308;28;20048;-72
2022/03/09 13:01:37;;;;;;;4.15;2.17;;;13.70;54.30;;;;;;5112706;28;20044;-72